sensor_id;sensor_type;location;lat;lon;timestamp;P1;durP1;ratioP1;P2;durP2;ratioP2
55136;SDS011;41032;47.818;-3.732;2023-01-26T08:16:58;9.98;;;4.57;;
55136;SDS011;41032;47.818;-3.732;2023-01-26T08:19:27;7.97;;;3.90;;
55136;SDS011;41032;47.818;-3.732;2023-01-26T08:21:56;7.60;;;3.70;;
55136;SDS011;41032;47.818;-3.732;2023-01-26T08:24:24;6.75;;;3.75;;
55136;SDS011;41032;47.818;-3.732;2023-01-26T08:26:52;6.60;;;3.60;;
55136;SDS011;41032;47.818;-3.732;2023-01-26T08:29:20;6.18;;;3.10;;
55136;SDS011;41032;47.818;-3.732;2023-01-26T08:31:47;6.90;;;3.95;;
55136;SDS011;41032;47.818;-3.732;2023-01-26T08:47:11;5.30;;;3.10;;
55136;SDS011;41032;47.818;-3.732;2023-01-26T08:49:40;7.15;;;3.38;;
55136;SDS011;41032;47.818;-3.732;2023-01-26T08:52:09;6.55;;;3.40;;
55136;SDS011;41032;47.818;-3.732;2023-01-26T08:54:37;7.13;;;2.92;;
55136;SDS011;41032;47.818;-3.732;2023-01-26T08:57:06;6.97;;;2.72;;
55136;SDS011;41032;47.818;-3.732;2023-01-26T08:59:34;5.82;;;2.97;;
55136;SDS011;41032;47.818;-3.732;2023-01-26T09:02:03;7.97;;;2.75;;
55136;SDS011;41032;47.818;-3.732;2023-01-26T09:04:32;4.97;;;2.45;;
55136;SDS011;41032;47.818;-3.732;2023-01-26T09:07:00;7.80;;;2.58;;
55136;SDS011;41032;47.818;-3.732;2023-01-26T09:09:28;7.10;;;2.60;;
55136;SDS011;41032;47.818;-3.732;2023-01-26T09:11:57;5.53;;;2.15;;
55136;SDS011;41032;47.818;-3.732;2023-01-26T09:14:25;4.55;;;2.22;;
55136;SDS011;41032;47.818;-3.732;2023-01-26T09:16:53;4.90;;;2.08;;
55136;SDS011;41032;47.818;-3.732;2023-01-26T09:19:22;6.35;;;2.75;;
55136;SDS011;41032;47.818;-3.732;2023-01-26T09:21:52;5.68;;;2.80;;
55136;SDS011;41032;47.818;-3.732;2023-01-26T09:24:20;7.63;;;2.75;;
55136;SDS011;41032;47.818;-3.732;2023-01-26T09:26:49;6.95;;;3.38;;
55136;SDS011;41032;47.818;-3.732;2023-01-26T09:29:18;5.22;;;2.78;;
55136;SDS011;41032;47.818;-3.732;2023-01-26T09:31:48;4.65;;;2.75;;
55136;SDS011;41032;47.818;-3.732;2023-01-26T09:34:16;4.60;;;2.38;;
55136;SDS011;41032;47.818;-3.732;2023-01-26T09:36:45;7.70;;;2.95;;
55136;SDS011;41032;47.818;-3.732;2023-01-26T09:39:13;4.95;;;2.03;;
55136;SDS011;41032;47.818;-3.732;2023-01-26T09:41:55;8.45;;;3.35;;
55136;SDS011;41032;47.818;-3.732;2023-01-26T09:44:26;6.18;;;2.92;;
55136;SDS011;41032;47.818;-3.732;2023-01-26T09:47:20;5.85;;;2.65;;
55136;SDS011;41032;47.818;-3.732;2023-01-26T09:49:50;5.47;;;2.45;;
55136;SDS011;41032;47.818;-3.732;2023-01-26T09:52:26;5.75;;;2.50;;
55136;SDS011;41032;47.818;-3.732;2023-01-26T09:54:57;5.47;;;2.42;;
55136;SDS011;41032;47.818;-3.732;2023-01-26T09:57:35;5.20;;;2.60;;
55136;SDS011;41032;47.818;-3.732;2023-01-26T10:00:09;5.65;;;2.35;;
55136;SDS011;41032;47.818;-3.732;2023-01-26T10:05:58;8.98;;;2.70;;
55136;SDS011;41032;47.818;-3.732;2023-01-26T10:08:23;4.45;;;2.03;;
55136;SDS011;41032;47.818;-3.732;2023-01-26T10:10:55;4.82;;;2.20;;
55136;SDS011;41032;47.818;-3.732;2023-01-26T10:13:27;5.93;;;2.10;;
55136;SDS011;41032;47.818;-3.732;2023-01-26T10:15:57;4.25;;;1.80;;
55136;SDS011;41032;47.818;-3.732;2023-01-26T10:18:34;5.38;;;2.20;;
55136;SDS011;41032;47.818;-3.732;2023-01-26T10:21:03;4.60;;;2.25;;
55136;SDS011;41032;47.818;-3.732;2023-01-26T10:23:33;5.88;;;2.50;;
55136;SDS011;41032;47.818;-3.732;2023-01-26T10:26:12;6.13;;;2.67;;
55136;SDS011;41032;47.818;-3.732;2023-01-26T10:28:46;7.03;;;2.47;;
55136;SDS011;41032;47.818;-3.732;2023-01-26T10:31:17;3.90;;;2.20;;
55136;SDS011;41032;47.818;-3.732;2023-01-26T10:33:56;6.47;;;2.67;;
55136;SDS011;41032;47.818;-3.732;2023-01-26T10:36:28;4.25;;;2.67;;
55136;SDS011;41032;47.818;-3.732;2023-01-26T10:39:07;4.35;;;2.10;;
55136;SDS011;41032;47.818;-3.732;2023-01-26T10:41:37;5.32;;;2.17;;
55136;SDS011;41032;47.818;-3.732;2023-01-26T10:46:38;6.68;;;1.92;;
55136;SDS011;41032;47.818;-3.732;2023-01-26T10:51:37;3.92;;;1.95;;
55136;SDS011;41032;47.818;-3.732;2023-01-26T10:54:27;3.75;;;1.77;;
55136;SDS011;41032;47.818;-3.732;2023-01-26T10:56:56;4.10;;;1.80;;
55136;SDS011;41032;47.818;-3.732;2023-01-26T10:59:30;3.70;;;1.58;;
55136;SDS011;41032;47.818;-3.732;2023-01-26T11:02:17;4.00;;;1.75;;
55136;SDS011;41032;47.818;-3.732;2023-01-26T11:05:14;3.47;;;1.75;;
55136;SDS011;41032;47.818;-3.732;2023-01-26T11:07:42;5.88;;;2.45;;
55136;SDS011;41032;47.818;-3.732;2023-01-26T11:10:32;4.40;;;2.13;;
55136;SDS011;41032;47.818;-3.732;2023-01-26T11:13:20;4.80;;;2.33;;
55136;SDS011;41032;47.818;-3.732;2023-01-26T11:15:49;4.60;;;2.35;;
55136;SDS011;41032;47.818;-3.732;2023-01-26T11:19:12;6.68;;;2.40;;
55136;SDS011;41032;47.818;-3.732;2023-01-26T11:24:18;4.15;;;2.20;;
55136;SDS011;41032;47.818;-3.732;2023-01-26T11:30:23;3.55;;;1.77;;
55136;SDS011;41032;47.818;-3.732;2023-01-26T11:35:29;4.20;;;1.45;;
55136;SDS011;41032;47.818;-3.732;2023-01-26T11:37:59;4.75;;;2.20;;
55136;SDS011;41032;47.818;-3.732;2023-01-26T11:43:50;5.23;;;2.70;;
55136;SDS011;41032;47.818;-3.732;2023-01-26T11:54:54;4.13;;;2.10;;
55136;SDS011;41032;47.818;-3.732;2023-01-26T12:00:36;3.65;;;1.80;;
55136;SDS011;41032;47.818;-3.732;2023-01-26T12:05:54;3.70;;;1.65;;
55136;SDS011;41032;47.818;-3.732;2023-01-26T12:08:30;4.13;;;1.65;;
55136;SDS011;41032;47.818;-3.732;2023-01-26T12:11:07;3.00;;;1.63;;
55136;SDS011;41032;47.818;-3.732;2023-01-26T12:13:51;4.60;;;1.92;;
55136;SDS011;41032;47.818;-3.732;2023-01-26T12:16:31;5.18;;;2.50;;
55136;SDS011;41032;47.818;-3.732;2023-01-26T12:19:09;6.35;;;2.35;;
55136;SDS011;41032;47.818;-3.732;2023-01-26T12:21:59;2.50;;;1.75;;
55136;SDS011;41032;47.818;-3.732;2023-01-26T12:24:37;3.97;;;2.22;;
55136;SDS011;41032;47.818;-3.732;2023-01-26T12:27:32;5.22;;;2.80;;
55136;SDS011;41032;47.818;-3.732;2023-01-26T12:30:19;5.43;;;2.33;;
55136;SDS011;41032;47.818;-3.732;2023-01-26T12:32:53;5.38;;;1.95;;
55136;SDS011;41032;47.818;-3.732;2023-01-26T12:38:19;6.18;;;1.58;;
55136;SDS011;41032;47.818;-3.732;2023-01-26T12:41:10;4.93;;;2.58;;
55136;SDS011;41032;47.818;-3.732;2023-01-26T12:44:07;7.78;;;2.30;;
55136;SDS011;41032;47.818;-3.732;2023-01-26T12:46:41;5.65;;;2.50;;
55136;SDS011;41032;47.818;-3.732;2023-01-26T12:49:16;6.15;;;3.13;;
55136;SDS011;41032;47.818;-3.732;2023-01-26T12:51:48;12.73;;;6.88;;
55136;SDS011;41032;47.818;-3.732;2023-01-26T12:56:49;38.42;;;23.60;;
55136;SDS011;41032;47.818;-3.732;2023-01-26T12:59:30;47.38;;;30.85;;
55136;SDS011;41032;47.818;-3.732;2023-01-26T13:02:34;65.20;;;42.20;;
55136;SDS011;41032;47.818;-3.732;2023-01-26T13:04:49;73.43;;;46.30;;
55136;SDS011;41032;47.818;-3.732;2023-01-26T13:07:37;81.55;;;52.72;;
55136;SDS011;41032;47.818;-3.732;2023-01-26T13:12:46;98.85;;;66.35;;
55136;SDS011;41032;47.818;-3.732;2023-01-26T13:15:13;114.78;;;75.85;;
55136;SDS011;41032;47.818;-3.732;2023-01-26T13:18:02;128.88;;;83.22;;
55136;SDS011;41032;47.818;-3.732;2023-01-26T13:20:49;129.75;;;87.85;;
55136;SDS011;41032;47.818;-3.732;2023-01-26T13:23:38;138.15;;;93.45;;
55136;SDS011;41032;47.818;-3.732;2023-01-26T13:26:46;150.23;;;100.63;;
55136;SDS011;41032;47.818;-3.732;2023-01-26T13:29:31;162.13;;;109.22;;
55136;SDS011;41032;47.818;-3.732;2023-01-26T13:34:36;185.48;;;125.47;;
55136;SDS011;41032;47.818;-3.732;2023-01-26T13:37:10;188.30;;;129.45;;
55136;SDS011;41032;47.818;-3.732;2023-01-26T13:39:43;200.60;;;134.82;;
55136;SDS011;41032;47.818;-3.732;2023-01-26T13:42:15;196.30;;;133.80;;
55136;SDS011;41032;47.818;-3.732;2023-01-26T13:44:56;214.15;;;138.85;;
55136;SDS011;41032;47.818;-3.732;2023-01-26T13:47:33;207.07;;;143.27;;
55136;SDS011;41032;47.818;-3.732;2023-01-26T13:50:47;223.85;;;151.30;;
55136;SDS011;41032;47.818;-3.732;2023-01-26T13:52:51;226.38;;;154.35;;
55136;SDS011;41032;47.818;-3.732;2023-01-26T13:55:29;213.38;;;149.27;;
55136;SDS011;41032;47.818;-3.732;2023-01-26T13:58:08;251.50;;;169.70;;
55136;SDS011;41032;47.818;-3.732;2023-01-26T14:00:38;248.15;;;169.93;;
55136;SDS011;41032;47.818;-3.732;2023-01-26T14:03:27;253.32;;;169.18;;
55136;SDS011;41032;47.818;-3.732;2023-01-26T14:05:56;246.02;;;170.38;;
55136;SDS011;41032;47.818;-3.732;2023-01-26T14:08:27;237.70;;;166.43;;
55136;SDS011;41032;47.818;-3.732;2023-01-26T14:10:56;235.20;;;166.45;;
55136;SDS011;41032;47.818;-3.732;2023-01-26T14:13:35;224.02;;;158.45;;
55136;SDS011;41032;47.818;-3.732;2023-01-26T14:16:04;230.55;;;160.32;;
55136;SDS011;41032;47.818;-3.732;2023-01-26T14:18:33;247.40;;;172.60;;
55136;SDS011;41032;47.818;-3.732;2023-01-26T14:21:02;247.07;;;171.57;;
55136;SDS011;41032;47.818;-3.732;2023-01-26T14:23:33;243.57;;;169.10;;
55136;SDS011;41032;47.818;-3.732;2023-01-26T14:26:03;252.43;;;178.27;;
55136;SDS011;41032;47.818;-3.732;2023-01-26T14:28:40;251.13;;;179.20;;
55136;SDS011;41032;47.818;-3.732;2023-01-26T14:33:43;247.80;;;168.03;;
55136;SDS011;41032;47.818;-3.732;2023-01-26T14:36:13;250.98;;;175.80;;
55136;SDS011;41032;47.818;-3.732;2023-01-26T14:38:43;261.23;;;180.40;;
55136;SDS011;41032;47.818;-3.732;2023-01-26T14:41:29;253.35;;;177.38;;
55136;SDS011;41032;47.818;-3.732;2023-01-26T14:43:58;254.52;;;179.32;;
55136;SDS011;41032;47.818;-3.732;2023-01-26T14:49:11;249.95;;;178.30;;
55136;SDS011;41032;47.818;-3.732;2023-01-26T14:51:43;258.80;;;178.43;;
55136;SDS011;41032;47.818;-3.732;2023-01-26T14:54:32;254.18;;;180.20;;
55136;SDS011;41032;47.818;-3.732;2023-01-26T14:57:05;248.10;;;175.85;;
55136;SDS011;41032;47.818;-3.732;2023-01-26T14:59:34;275.58;;;188.70;;
55136;SDS011;41032;47.818;-3.732;2023-01-26T15:02:14;272.45;;;192.07;;
55136;SDS011;41032;47.818;-3.732;2023-01-26T15:04:45;265.15;;;191.82;;
55136;SDS011;41032;47.818;-3.732;2023-01-26T15:10:00;280.48;;;192.85;;
55136;SDS011;41032;47.818;-3.732;2023-01-26T15:12:33;291.02;;;197.68;;
55136;SDS011;41032;47.818;-3.732;2023-01-26T15:15:02;269.27;;;186.32;;
55136;SDS011;41032;47.818;-3.732;2023-01-26T15:17:41;274.13;;;198.13;;
55136;SDS011;41032;47.818;-3.732;2023-01-26T15:22:40;288.15;;;203.45;;
55136;SDS011;41032;47.818;-3.732;2023-01-26T15:25:17;276.38;;;194.48;;
55136;SDS011;41032;47.818;-3.732;2023-01-26T15:27:54;278.98;;;193.50;;
55136;SDS011;41032;47.818;-3.732;2023-01-26T15:32:54;302.27;;;210.48;;
55136;SDS011;41032;47.818;-3.732;2023-01-26T15:35:24;294.55;;;203.88;;
55136;SDS011;41032;47.818;-3.732;2023-01-26T15:38:03;303.98;;;205.45;;
55136;SDS011;41032;47.818;-3.732;2023-01-26T15:40:37;305.23;;;210.40;;
55136;SDS011;41032;47.818;-3.732;2023-01-26T15:43:14;306.13;;;214.55;;
55136;SDS011;41032;47.818;-3.732;2023-01-26T15:45:54;290.80;;;207.63;;
55136;SDS011;41032;47.818;-3.732;2023-01-26T15:48:22;310.30;;;217.82;;
55136;SDS011;41032;47.818;-3.732;2023-01-26T15:50:51;303.60;;;217.02;;
55136;SDS011;41032;47.818;-3.732;2023-01-26T15:53:20;290.25;;;209.90;;
55136;SDS011;41032;47.818;-3.732;2023-01-26T15:55:48;305.20;;;217.75;;
55136;SDS011;41032;47.818;-3.732;2023-01-26T15:58:17;320.50;;;222.13;;
55136;SDS011;41032;47.818;-3.732;2023-01-26T16:00:45;314.42;;;221.45;;
55136;SDS011;41032;47.818;-3.732;2023-01-26T16:03:14;320.83;;;224.88;;
55136;SDS011;41032;47.818;-3.732;2023-01-26T16:05:42;314.52;;;225.43;;
55136;SDS011;41032;47.818;-3.732;2023-01-26T16:08:12;317.13;;;221.68;;
55136;SDS011;41032;47.818;-3.732;2023-01-26T16:10:40;328.98;;;232.60;;
55136;SDS011;41032;47.818;-3.732;2023-01-26T16:13:09;313.30;;;223.45;;
55136;SDS011;41032;47.818;-3.732;2023-01-26T16:15:40;326.40;;;230.27;;
55136;SDS011;41032;47.818;-3.732;2023-01-26T16:18:09;325.10;;;229.00;;
55136;SDS011;41032;47.818;-3.732;2023-01-26T16:20:38;320.70;;;232.85;;
55136;SDS011;41032;47.818;-3.732;2023-01-26T16:23:25;338.90;;;233.00;;
55136;SDS011;41032;47.818;-3.732;2023-01-26T16:25:54;332.02;;;231.25;;
55136;SDS011;41032;47.818;-3.732;2023-01-26T16:28:21;318.88;;;232.88;;
55136;SDS011;41032;47.818;-3.732;2023-01-26T16:30:49;331.10;;;232.73;;
55136;SDS011;41032;47.818;-3.732;2023-01-26T16:33:17;326.60;;;228.38;;
55136;SDS011;41032;47.818;-3.732;2023-01-26T16:35:46;327.75;;;233.57;;
55136;SDS011;41032;47.818;-3.732;2023-01-26T16:38:13;324.20;;;228.38;;
55136;SDS011;41032;47.818;-3.732;2023-01-26T16:40:43;326.08;;;229.95;;
55136;SDS011;41032;47.818;-3.732;2023-01-26T16:43:13;311.85;;;226.40;;
55136;SDS011;41032;47.818;-3.732;2023-01-26T16:45:44;315.17;;;224.23;;
55136;SDS011;41032;47.818;-3.732;2023-01-26T16:48:12;315.70;;;225.18;;
55136;SDS011;41032;47.818;-3.732;2023-01-26T16:50:41;318.73;;;231.75;;
55136;SDS011;41032;47.818;-3.732;2023-01-26T16:53:16;328.33;;;232.15;;
55136;SDS011;41032;47.818;-3.732;2023-01-26T16:55:45;322.20;;;227.65;;
55136;SDS011;41032;47.818;-3.732;2023-01-26T16:58:13;307.25;;;223.15;;
55136;SDS011;41032;47.818;-3.732;2023-01-26T17:00:40;319.85;;;228.63;;
55136;SDS011;41032;47.818;-3.732;2023-01-26T17:03:10;315.80;;;225.68;;
55136;SDS011;41032;47.818;-3.732;2023-01-26T17:05:38;308.95;;;223.65;;
55136;SDS011;41032;47.818;-3.732;2023-01-26T17:08:06;308.67;;;216.32;;
55136;SDS011;41032;47.818;-3.732;2023-01-26T17:10:35;323.58;;;227.48;;
55136;SDS011;41032;47.818;-3.732;2023-01-26T17:13:02;327.67;;;229.88;;
55136;SDS011;41032;47.818;-3.732;2023-01-26T17:15:30;312.63;;;222.70;;
55136;SDS011;41032;47.818;-3.732;2023-01-26T17:17:57;319.58;;;233.85;;
55136;SDS011;41032;47.818;-3.732;2023-01-26T17:20:25;330.27;;;235.25;;
55136;SDS011;41032;47.818;-3.732;2023-01-26T17:22:53;316.70;;;231.98;;
55136;SDS011;41032;47.818;-3.732;2023-01-26T17:25:20;336.40;;;238.02;;
55136;SDS011;41032;47.818;-3.732;2023-01-26T17:27:48;332.83;;;232.20;;
55136;SDS011;41032;47.818;-3.732;2023-01-26T17:30:16;337.65;;;237.75;;
55136;SDS011;41032;47.818;-3.732;2023-01-26T17:32:44;349.80;;;239.88;;
55136;SDS011;41032;47.818;-3.732;2023-01-26T17:35:12;339.33;;;236.90;;
55136;SDS011;41032;47.818;-3.732;2023-01-26T17:37:40;329.52;;;235.77;;
55136;SDS011;41032;47.818;-3.732;2023-01-26T17:40:08;347.40;;;242.57;;
55136;SDS011;41032;47.818;-3.732;2023-01-26T17:42:36;328.42;;;235.85;;
55136;SDS011;41032;47.818;-3.732;2023-01-26T17:45:04;337.52;;;230.20;;
55136;SDS011;41032;47.818;-3.732;2023-01-26T17:47:34;324.52;;;228.60;;
55136;SDS011;41032;47.818;-3.732;2023-01-26T17:50:03;335.35;;;237.40;;
55136;SDS011;41032;47.818;-3.732;2023-01-26T17:52:31;333.63;;;236.80;;
55136;SDS011;41032;47.818;-3.732;2023-01-26T17:55:01;334.50;;;233.93;;
55136;SDS011;41032;47.818;-3.732;2023-01-26T18:00:53;349.15;;;239.02;;
55136;SDS011;41032;47.818;-3.732;2023-01-26T18:03:20;340.42;;;237.52;;
55136;SDS011;41032;47.818;-3.732;2023-01-26T18:05:52;349.00;;;243.38;;
55136;SDS011;41032;47.818;-3.732;2023-01-26T18:08:22;347.67;;;243.35;;
55136;SDS011;41032;47.818;-3.732;2023-01-26T18:11:00;347.25;;;244.05;;
55136;SDS011;41032;47.818;-3.732;2023-01-26T18:13:29;353.02;;;247.38;;
55136;SDS011;41032;47.818;-3.732;2023-01-26T18:15:58;352.13;;;246.32;;
55136;SDS011;41032;47.818;-3.732;2023-01-26T18:18:27;331.35;;;237.57;;
55136;SDS011;41032;47.818;-3.732;2023-01-26T18:20:55;331.13;;;237.52;;
55136;SDS011;41032;47.818;-3.732;2023-01-26T18:23:23;331.48;;;232.45;;
55136;SDS011;41032;47.818;-3.732;2023-01-26T18:25:51;320.42;;;229.00;;
55136;SDS011;41032;47.818;-3.732;2023-01-26T18:28:18;324.92;;;231.88;;
55136;SDS011;41032;47.818;-3.732;2023-01-26T18:30:46;325.38;;;232.20;;
55136;SDS011;41032;47.818;-3.732;2023-01-26T18:33:14;316.25;;;225.48;;
55136;SDS011;41032;47.818;-3.732;2023-01-26T18:35:41;327.98;;;231.60;;
55136;SDS011;41032;47.818;-3.732;2023-01-26T18:38:09;318.25;;;232.38;;
55136;SDS011;41032;47.818;-3.732;2023-01-26T18:40:38;322.52;;;226.98;;
55136;SDS011;41032;47.818;-3.732;2023-01-26T18:43:05;335.55;;;230.40;;
55136;SDS011;41032;47.818;-3.732;2023-01-26T18:45:34;317.48;;;223.73;;
55136;SDS011;41032;47.818;-3.732;2023-01-26T18:48:01;314.35;;;219.85;;
55136;SDS011;41032;47.818;-3.732;2023-01-26T18:50:28;321.08;;;227.48;;
55136;SDS011;41032;47.818;-3.732;2023-01-26T18:52:55;325.13;;;228.40;;
55136;SDS011;41032;47.818;-3.732;2023-01-26T18:55:22;333.27;;;235.60;;
55136;SDS011;41032;47.818;-3.732;2023-01-26T18:57:51;336.13;;;233.82;;
55136;SDS011;41032;47.818;-3.732;2023-01-26T19:00:19;320.15;;;231.23;;
55136;SDS011;41032;47.818;-3.732;2023-01-26T19:02:47;329.05;;;230.30;;
55136;SDS011;41032;47.818;-3.732;2023-01-26T19:05:14;317.77;;;232.07;;
55136;SDS011;41032;47.818;-3.732;2023-01-26T19:07:41;321.60;;;227.60;;
55136;SDS011;41032;47.818;-3.732;2023-01-26T19:10:09;328.33;;;225.73;;
55136;SDS011;41032;47.818;-3.732;2023-01-26T19:12:36;323.55;;;228.10;;
55136;SDS011;41032;47.818;-3.732;2023-01-26T19:15:04;344.35;;;236.90;;
55136;SDS011;41032;47.818;-3.732;2023-01-26T19:17:33;334.45;;;232.70;;
55136;SDS011;41032;47.818;-3.732;2023-01-26T19:20:01;328.38;;;232.13;;
55136;SDS011;41032;47.818;-3.732;2023-01-26T19:22:29;324.67;;;230.55;;
55136;SDS011;41032;47.818;-3.732;2023-01-26T19:24:57;330.23;;;231.75;;
55136;SDS011;41032;47.818;-3.732;2023-01-26T19:27:25;342.52;;;236.27;;
55136;SDS011;41032;47.818;-3.732;2023-01-26T19:29:56;336.65;;;237.30;;
55136;SDS011;41032;47.818;-3.732;2023-01-26T19:32:24;350.27;;;242.48;;
55136;SDS011;41032;47.818;-3.732;2023-01-26T19:34:51;343.27;;;234.77;;
55136;SDS011;41032;47.818;-3.732;2023-01-26T19:40:43;330.67;;;231.73;;
55136;SDS011;41032;47.818;-3.732;2023-01-26T19:43:12;337.05;;;237.40;;
55136;SDS011;41032;47.818;-3.732;2023-01-26T19:45:45;332.00;;;233.07;;
55136;SDS011;41032;47.818;-3.732;2023-01-26T19:48:15;332.85;;;239.55;;
55136;SDS011;41032;47.818;-3.732;2023-01-26T19:50:42;333.05;;;238.25;;
55136;SDS011;41032;47.818;-3.732;2023-01-26T19:53:10;347.73;;;244.00;;
55136;SDS011;41032;47.818;-3.732;2023-01-26T19:55:38;351.67;;;249.18;;
55136;SDS011;41032;47.818;-3.732;2023-01-26T19:58:05;339.63;;;238.55;;
55136;SDS011;41032;47.818;-3.732;2023-01-26T20:00:35;337.83;;;239.30;;
55136;SDS011;41032;47.818;-3.732;2023-01-26T20:03:03;349.23;;;242.80;;
55136;SDS011;41032;47.818;-3.732;2023-01-26T20:05:34;356.75;;;245.23;;
55136;SDS011;41032;47.818;-3.732;2023-01-26T20:08:02;341.42;;;239.43;;
55136;SDS011;41032;47.818;-3.732;2023-01-26T20:10:30;345.80;;;242.52;;
55136;SDS011;41032;47.818;-3.732;2023-01-26T20:12:57;337.80;;;237.60;;
55136;SDS011;41032;47.818;-3.732;2023-01-26T20:15:26;341.42;;;243.65;;
55136;SDS011;41032;47.818;-3.732;2023-01-26T20:17:54;340.35;;;238.15;;
55136;SDS011;41032;47.818;-3.732;2023-01-26T20:20:22;343.65;;;241.13;;
55136;SDS011;41032;47.818;-3.732;2023-01-26T20:22:49;340.40;;;241.20;;
55136;SDS011;41032;47.818;-3.732;2023-01-26T20:25:17;339.48;;;237.10;;
55136;SDS011;41032;47.818;-3.732;2023-01-26T20:27:45;350.10;;;245.43;;
55136;SDS011;41032;47.818;-3.732;2023-01-26T20:30:12;343.00;;;244.20;;
55136;SDS011;41032;47.818;-3.732;2023-01-26T20:32:41;348.45;;;243.88;;
55136;SDS011;41032;47.818;-3.732;2023-01-26T20:35:11;362.35;;;248.48;;
55136;SDS011;41032;47.818;-3.732;2023-01-26T20:37:39;349.27;;;248.05;;
55136;SDS011;41032;47.818;-3.732;2023-01-26T20:40:07;354.40;;;246.63;;
55136;SDS011;41032;47.818;-3.732;2023-01-26T20:42:34;337.30;;;240.75;;
55136;SDS011;41032;47.818;-3.732;2023-01-26T20:45:03;358.30;;;254.32;;
